createdAt,value
2023-04-30T00:01:25.384Z,91.50
2023-04-30T00:04:11.408Z,91.50
2023-04-30T00:06:56.687Z,91.60
2023-04-30T00:09:42.241Z,91.70
2023-04-30T00:12:29.788Z,91.60
2023-04-30T00:15:15.470Z,91.60
2023-04-30T00:18:01.102Z,91.50
2023-04-30T00:20:46.403Z,91.60
2023-04-30T00:23:31.761Z,91.50
2023-04-30T00:26:17.333Z,91.60
2023-04-30T00:29:10.292Z,92.00
2023-04-30T00:31:57.584Z,91.70
2023-04-30T00:34:43.224Z,91.90
2023-04-30T00:37:28.372Z,91.90
2023-04-30T00:40:14.012Z,91.80
2023-04-30T00:42:59.857Z,91.90
2023-04-30T00:45:44.953Z,92.10
2023-04-30T00:48:30.509Z,92.30
2023-04-30T00:51:18.091Z,92.40
2023-04-30T00:54:03.858Z,92.60
2023-04-30T00:56:49.565Z,92.60
2023-04-30T00:59:35.361Z,92.80
2023-04-30T01:02:20.964Z,93.00
2023-04-30T01:05:07.775Z,93.10
2023-04-30T01:07:54.635Z,93.10
2023-04-30T01:10:53.764Z,93.30
2023-04-30T01:13:49.448Z,93.30
2023-04-30T01:16:48.781Z,93.30
2023-04-30T01:19:40.446Z,93.20
2023-04-30T01:22:28.801Z,93.40
2023-04-30T01:25:33.550Z,93.50
2023-04-30T01:28:20.812Z,93.60
2023-04-30T01:31:18.404Z,93.80
2023-04-30T01:34:07.129Z,93.90
2023-04-30T01:37:06.227Z,93.60
2023-04-30T01:40:28.079Z,93.70
2023-04-30T01:43:37.884Z,93.60
2023-04-30T01:46:30.123Z,93.40
2023-04-30T01:49:40.514Z,93.50
2023-04-30T01:52:34.858Z,93.60
2023-04-30T01:55:37.887Z,93.60
2023-04-30T01:58:25.606Z,93.50
2023-04-30T02:01:32.938Z,93.60
2023-04-30T02:04:18.406Z,93.70
2023-04-30T02:07:03.778Z,93.70
2023-04-30T02:09:48.993Z,94.00
2023-04-30T02:12:35.150Z,94.20
2023-04-30T02:15:20.903Z,94.30
2023-04-30T02:18:06.679Z,94.40
2023-04-30T02:20:52.002Z,94.40
2023-04-30T02:23:37.459Z,94.50
2023-04-30T02:26:23.068Z,94.50
2023-04-30T02:29:08.096Z,94.60
2023-04-30T02:31:53.478Z,94.70
2023-04-30T02:34:38.704Z,94.90
2023-04-30T02:37:24.203Z,95.00
2023-04-30T02:40:10.573Z,95.00
2023-04-30T02:42:57.266Z,95.00
2023-04-30T02:45:42.690Z,95.20
2023-04-30T02:48:27.816Z,94.80
2023-04-30T02:51:13.407Z,94.80
2023-04-30T02:53:59.199Z,94.80
2023-04-30T02:56:46.558Z,94.90
2023-04-30T02:59:32.097Z,94.80
2023-04-30T03:02:21.516Z,94.90
2023-04-30T03:05:10.308Z,95.00
2023-04-30T03:07:55.936Z,95.10
2023-04-30T03:10:41.687Z,95.40
2023-04-30T03:13:26.924Z,95.10
2023-04-30T03:16:12.245Z,95.00
2023-04-30T03:18:57.671Z,95.20
2023-04-30T03:21:43.233Z,95.30
2023-04-30T03:24:29.314Z,95.60
2023-04-30T03:27:16.840Z,95.90
2023-04-30T03:30:02.341Z,95.70
2023-04-30T03:32:48.053Z,95.50
2023-04-30T03:35:35.274Z,95.40
2023-04-30T03:38:20.754Z,95.20
2023-04-30T03:41:06.403Z,95.20
2023-04-30T03:43:54.909Z,95.20
2023-04-30T03:46:40.537Z,95.20
2023-04-30T03:49:25.907Z,95.20
2023-04-30T03:52:11.460Z,95.40
2023-04-30T03:54:57.503Z,95.30
2023-04-30T03:57:43.222Z,95.40
2023-04-30T04:00:28.976Z,95.40
2023-04-30T04:03:15.727Z,95.40
2023-04-30T04:06:01.280Z,95.30
2023-04-30T04:08:47.000Z,95.50
2023-04-30T04:11:33.300Z,95.60
2023-04-30T04:14:18.929Z,95.70
2023-04-30T04:17:08.195Z,95.50
2023-04-30T04:19:54.041Z,95.40
2023-04-30T04:22:39.910Z,95.50
2023-04-30T04:25:28.954Z,95.60
2023-04-30T04:28:14.598Z,95.60
2023-04-30T04:31:00.071Z,95.70
2023-04-30T04:33:45.909Z,96.10
2023-04-30T04:36:31.825Z,95.80
2023-04-30T04:39:17.005Z,95.80
2023-04-30T04:42:02.897Z,95.90
2023-04-30T04:44:48.338Z,96.10
2023-04-30T04:47:38.570Z,96.20
2023-04-30T04:50:24.237Z,96.10
2023-04-30T04:53:09.668Z,96.10
2023-04-30T04:55:54.975Z,96.20
2023-04-30T04:58:43.108Z,96.60
2023-04-30T05:01:29.451Z,96.30
2023-04-30T05:04:14.998Z,96.40
2023-04-30T05:07:01.458Z,96.50
2023-04-30T05:09:47.281Z,96.70
2023-04-30T05:12:32.997Z,96.70
2023-04-30T05:15:18.182Z,96.90
2023-04-30T05:18:03.897Z,97.00
2023-04-30T05:20:49.361Z,97.10
2023-04-30T05:23:34.423Z,97.10
2023-04-30T05:26:20.138Z,97.10
2023-04-30T05:29:05.874Z,97.20
2023-04-30T05:31:51.610Z,97.30
2023-04-30T05:34:37.024Z,97.40
2023-04-30T05:37:22.793Z,97.30
2023-04-30T05:40:08.855Z,97.30
2023-04-30T05:42:54.301Z,97.40
2023-04-30T05:45:42.708Z,97.40
2023-04-30T05:48:30.855Z,97.50
2023-04-30T05:51:16.184Z,97.40
2023-04-30T05:54:01.650Z,97.50
2023-04-30T05:56:47.132Z,97.60
2023-04-30T05:59:32.454Z,97.60
2023-04-30T06:02:18.077Z,97.70
2023-04-30T06:05:03.760Z,97.60
2023-04-30T06:07:49.981Z,97.60
2023-04-30T06:10:38.480Z,97.70
2023-04-30T06:13:23.969Z,97.60
2023-04-30T06:16:09.723Z,97.70
2023-04-30T06:18:55.054Z,97.70
2023-04-30T06:21:40.599Z,97.70
2023-04-30T06:24:27.545Z,97.70
2023-04-30T06:27:13.377Z,97.70
2023-04-30T06:30:01.874Z,97.60
2023-04-30T06:32:47.607Z,97.60
2023-04-30T06:35:33.331Z,97.50
2023-04-30T06:38:19.153Z,97.40
2023-04-30T06:41:04.444Z,97.40
2023-04-30T06:43:50.129Z,97.30
2023-04-30T06:46:36.135Z,97.20
2023-04-30T06:49:21.663Z,97.30
2023-04-30T06:52:09.913Z,97.30
2023-04-30T06:54:55.074Z,97.30
2023-04-30T06:57:40.599Z,97.30
2023-04-30T07:00:26.511Z,97.10
2023-04-30T07:03:12.131Z,97.10
2023-04-30T07:05:57.651Z,97.10
2023-04-30T07:08:49.209Z,97.20
2023-04-30T07:11:34.836Z,97.10
2023-04-30T07:14:20.164Z,96.90
2023-04-30T07:17:05.949Z,96.80
2023-04-30T07:19:51.276Z,96.80
2023-04-30T07:22:36.745Z,96.70
2023-04-30T07:25:22.388Z,96.70
2023-04-30T07:28:07.707Z,96.70
2023-04-30T07:30:53.284Z,96.70
2023-04-30T07:33:38.767Z,96.50
2023-04-30T07:36:24.689Z,96.30
2023-04-30T07:39:11.762Z,96.20
2023-04-30T07:41:57.320Z,96.10
2023-04-30T07:44:42.793Z,96.00
2023-04-30T07:47:28.286Z,95.90
2023-04-30T07:50:14.786Z,95.80
2023-04-30T07:53:01.383Z,95.70
2023-04-30T07:55:46.611Z,95.50
2023-04-30T07:58:32.090Z,95.50
2023-04-30T08:01:17.301Z,95.30
2023-04-30T08:04:02.647Z,95.20
2023-04-30T08:06:48.225Z,95.10
2023-04-30T08:09:33.657Z,95.10
2023-04-30T08:12:19.128Z,94.90
2023-04-30T08:15:07.564Z,94.60
2023-04-30T08:17:55.690Z,94.40
2023-04-30T08:20:41.345Z,94.40
2023-04-30T08:23:27.283Z,94.30
2023-04-30T08:26:12.820Z,94.20
2023-04-30T08:28:57.972Z,94.10
2023-04-30T08:31:43.340Z,93.90
2023-04-30T08:34:28.486Z,93.70
2023-04-30T08:37:14.008Z,93.40
2023-04-30T08:40:00.008Z,93.60
2023-04-30T08:42:57.289Z,93.10
2023-04-30T08:45:42.785Z,92.90
2023-04-30T08:48:28.325Z,92.40
2023-04-30T08:51:15.434Z,92.30
2023-04-30T08:54:06.635Z,92.20
2023-04-30T08:56:52.054Z,92.00
2023-04-30T08:59:38.147Z,91.60
2023-04-30T09:02:23.676Z,91.10
2023-04-30T09:05:12.649Z,91.00
2023-04-30T09:08:04.145Z,90.60
2023-04-30T09:10:52.650Z,90.40
2023-04-30T09:13:41.990Z,90.10
2023-04-30T09:16:33.082Z,89.70
2023-04-30T09:19:26.235Z,89.50
2023-04-30T09:22:24.173Z,88.40
2023-04-30T09:25:11.254Z,87.70
2023-04-30T09:28:13.728Z,87.00
2023-04-30T09:31:00.069Z,86.00
2023-04-30T09:33:47.499Z,85.60
2023-04-30T09:36:33.651Z,85.00
2023-04-30T09:39:18.889Z,84.50
2023-04-30T09:42:12.151Z,84.00
2023-04-30T09:44:58.373Z,83.60
2023-04-30T09:47:43.658Z,83.00
2023-04-30T09:50:43.295Z,82.80
2023-04-30T09:53:29.859Z,82.50
2023-04-30T09:56:20.061Z,81.70
2023-04-30T09:59:08.177Z,81.70
2023-04-30T10:01:55.281Z,81.30
2023-04-30T10:04:43.434Z,80.90
2023-04-30T10:07:36.301Z,80.40
2023-04-30T10:10:22.937Z,80.00
2023-04-30T10:13:14.324Z,79.80
2023-04-30T10:16:04.946Z,79.60
2023-04-30T10:18:52.993Z,79.10
2023-04-30T10:21:48.207Z,79.40
2023-04-30T10:24:33.579Z,78.30
2023-04-30T10:27:19.183Z,78.00
2023-04-30T10:30:05.160Z,77.60
2023-04-30T10:32:53.855Z,77.20
2023-04-30T10:36:01.137Z,76.60
2023-04-30T10:38:48.457Z,75.70
2023-04-30T10:41:34.212Z,75.10
2023-04-30T10:44:23.092Z,74.80
2023-04-30T10:47:10.292Z,74.30
2023-04-30T10:50:04.413Z,73.40
2023-04-30T10:53:05.402Z,71.80
2023-04-30T10:56:01.223Z,71.00
2023-04-30T10:58:47.261Z,70.00
2023-04-30T11:01:54.347Z,69.20
2023-04-30T11:05:12.630Z,68.60
2023-04-30T11:07:58.673Z,67.60
2023-04-30T11:11:00.861Z,66.00
2023-04-30T11:13:58.995Z,65.90
2023-04-30T11:16:44.501Z,66.10
2023-04-30T11:19:32.827Z,64.20
2023-04-30T11:22:25.318Z,62.70
2023-04-30T11:25:16.682Z,61.50
2023-04-30T11:28:02.693Z,59.90
2023-04-30T11:30:58.892Z,57.60
2023-04-30T11:33:44.190Z,55.50
2023-04-30T11:36:31.684Z,53.70
2023-04-30T11:39:18.338Z,51.00
2023-04-30T11:42:03.593Z,47.60
2023-04-30T11:44:49.185Z,45.50
2023-04-30T11:47:57.372Z,42.60
2023-04-30T11:50:43.303Z,41.70
2023-04-30T11:53:29.523Z,41.00
2023-04-30T11:56:18.667Z,38.60
2023-04-30T11:59:11.157Z,36.70
2023-04-30T12:01:57.363Z,35.00
2023-04-30T12:04:48.488Z,33.40
2023-04-30T12:07:34.482Z,31.30
2023-04-30T12:10:20.774Z,29.70
2023-04-30T12:13:06.380Z,28.70
2023-04-30T12:15:59.597Z,28.10
2023-04-30T12:18:52.520Z,27.70
2023-04-30T12:21:39.153Z,27.60
2023-04-30T12:24:27.532Z,28.00
2023-04-30T12:27:12.940Z,27.80
2023-04-30T12:30:09.955Z,27.20
2023-04-30T12:32:59.585Z,26.80
2023-04-30T12:35:45.043Z,27.00
2023-04-30T12:38:30.611Z,26.50
2023-04-30T12:41:19.116Z,26.30
2023-04-30T12:44:25.607Z,25.90
2023-04-30T12:47:11.219Z,25.10
2023-04-30T12:49:58.083Z,24.30
2023-04-30T12:52:46.254Z,23.40
2023-04-30T12:55:31.953Z,23.00
2023-04-30T12:58:17.519Z,22.60
2023-04-30T13:01:03.112Z,22.10
2023-04-30T13:03:48.852Z,21.70
2023-04-30T13:06:35.261Z,21.00
2023-04-30T13:09:20.734Z,20.00
2023-04-30T13:12:09.706Z,20.10
2023-04-30T13:14:55.388Z,19.90
2023-04-30T13:17:40.836Z,19.60
2023-04-30T13:20:27.457Z,19.30
2023-04-30T13:23:13.490Z,19.40
2023-04-30T13:25:59.277Z,19.70
2023-04-30T13:28:45.192Z,19.70
2023-04-30T13:31:31.242Z,19.50
2023-04-30T13:34:18.120Z,19.30
2023-04-30T13:37:03.552Z,19.40
2023-04-30T13:39:49.079Z,19.40
2023-04-30T13:42:36.709Z,18.60
2023-04-30T13:45:22.183Z,17.90
2023-04-30T13:48:07.470Z,17.70
2023-04-30T13:50:54.638Z,17.60
2023-04-30T13:53:40.422Z,18.50
2023-04-30T13:56:28.839Z,19.60
2023-04-30T13:59:15.163Z,19.20
2023-04-30T14:02:00.681Z,18.40
2023-04-30T14:04:58.096Z,18.10
2023-04-30T14:07:50.924Z,17.90
2023-04-30T14:10:36.435Z,18.10
2023-04-30T14:13:21.854Z,17.80
2023-04-30T14:16:07.558Z,17.50
2023-04-30T14:18:52.972Z,17.00
2023-04-30T14:21:38.226Z,16.70
2023-04-30T14:24:29.193Z,16.70
2023-04-30T14:27:14.555Z,16.60
2023-04-30T14:30:00.027Z,16.70
2023-04-30T14:32:45.686Z,16.90
2023-04-30T14:35:31.252Z,17.10
2023-04-30T14:38:17.327Z,16.90
2023-04-30T14:41:02.924Z,16.40
2023-04-30T14:43:48.525Z,16.30
2023-04-30T14:46:34.718Z,16.60
2023-04-30T14:49:20.038Z,16.70
2023-04-30T14:52:05.849Z,16.50
2023-04-30T14:54:51.207Z,16.40
2023-04-30T14:57:36.706Z,16.50
2023-04-30T15:00:22.067Z,15.60
2023-04-30T15:03:07.865Z,15.50
2023-04-30T15:05:53.427Z,15.50
2023-04-30T15:08:44.707Z,15.40
2023-04-30T15:11:31.409Z,15.30
2023-04-30T15:14:17.471Z,16.10
2023-04-30T15:17:03.424Z,16.20
2023-04-30T15:19:48.885Z,16.20
2023-04-30T15:22:36.839Z,16.50
2023-04-30T15:25:24.188Z,16.30
2023-04-30T15:28:10.443Z,16.80
2023-04-30T15:30:56.338Z,17.80
2023-04-30T15:33:42.423Z,17.70
2023-04-30T15:36:27.992Z,17.40
2023-04-30T15:39:14.019Z,16.70
2023-04-30T15:41:59.132Z,16.50
2023-04-30T15:44:44.690Z,17.00
2023-04-30T15:47:30.465Z,17.30
2023-04-30T15:50:15.851Z,16.90
2023-04-30T15:53:01.357Z,17.30
2023-04-30T15:55:48.729Z,18.80
2023-04-30T15:58:34.045Z,18.80
2023-04-30T16:01:19.465Z,19.00
2023-04-30T16:04:06.422Z,19.20
2023-04-30T16:06:55.904Z,19.40
2023-04-30T16:09:45.588Z,19.20
2023-04-30T16:12:31.088Z,18.80
2023-04-30T16:15:16.688Z,18.60
2023-04-30T16:18:01.907Z,18.70
2023-04-30T16:20:48.899Z,19.10
2023-04-30T16:23:34.459Z,19.30
2023-04-30T16:26:20.041Z,19.70
2023-04-30T16:29:05.344Z,20.20
2023-04-30T16:31:52.292Z,21.30
2023-04-30T16:34:37.552Z,21.70
2023-04-30T16:37:23.088Z,21.70
2023-04-30T16:40:10.416Z,22.00
2023-04-30T16:42:55.696Z,21.90
2023-04-30T16:45:45.179Z,22.20
2023-04-30T16:48:30.967Z,22.70
2023-04-30T16:51:16.502Z,23.00
2023-04-30T16:54:02.225Z,23.40
2023-04-30T16:56:47.532Z,24.80
2023-04-30T16:59:33.187Z,24.80
2023-04-30T17:02:18.788Z,24.80
2023-04-30T17:05:05.077Z,24.40
2023-04-30T17:07:50.753Z,24.70
2023-04-30T17:10:38.281Z,24.20
2023-04-30T17:13:23.777Z,24.40
2023-04-30T17:16:09.843Z,24.90
2023-04-30T17:18:54.991Z,25.30
2023-04-30T17:21:40.374Z,25.50
2023-04-30T17:24:26.108Z,26.00
2023-04-30T17:27:11.679Z,26.40
2023-04-30T17:29:57.388Z,27.00
2023-04-30T17:32:44.161Z,27.50
2023-04-30T17:35:29.817Z,27.80
2023-04-30T17:38:15.697Z,27.80
2023-04-30T17:41:01.002Z,27.90
2023-04-30T17:43:46.767Z,28.10
2023-04-30T17:46:32.249Z,28.50
2023-04-30T17:49:18.081Z,29.00
2023-04-30T17:52:05.836Z,29.50
2023-04-30T17:55:11.930Z,30.10
2023-04-30T17:57:59.250Z,30.50
2023-04-30T18:00:44.752Z,30.70
2023-04-30T18:03:30.617Z,31.00
2023-04-30T18:06:19.730Z,31.10
2023-04-30T18:09:04.952Z,31.60
2023-04-30T18:11:50.621Z,31.90
2023-04-30T18:14:36.340Z,32.50
2023-04-30T18:17:21.656Z,33.00
2023-04-30T18:20:08.290Z,33.70
2023-04-30T18:22:56.631Z,34.20
2023-04-30T18:25:45.238Z,35.10
2023-04-30T18:28:30.856Z,35.70
2023-04-30T18:31:16.336Z,36.60
2023-04-30T18:34:01.718Z,37.40
2023-04-30T18:36:47.586Z,38.00
2023-04-30T18:39:33.099Z,38.60
2023-04-30T18:42:21.815Z,39.10
2023-04-30T18:45:09.976Z,39.80
2023-04-30T18:47:55.718Z,40.50
2023-04-30T18:50:43.252Z,41.20
2023-04-30T18:53:28.929Z,41.70
2023-04-30T18:56:15.926Z,42.40
2023-04-30T18:59:01.391Z,43.00
2023-04-30T19:01:47.297Z,43.70
2023-04-30T19:04:32.624Z,44.30
2023-04-30T19:07:18.786Z,44.80
2023-04-30T19:10:04.729Z,45.40
2023-04-30T19:12:50.048Z,46.00
2023-04-30T19:15:35.667Z,46.60
2023-04-30T19:18:21.251Z,47.10
2023-04-30T19:21:07.280Z,47.80
2023-04-30T19:23:52.577Z,48.20
2023-04-30T19:26:38.255Z,48.70
2023-04-30T19:29:24.747Z,49.10
2023-04-30T19:32:10.340Z,49.70
2023-04-30T19:34:55.931Z,50.40
2023-04-30T19:37:41.879Z,50.80
2023-04-30T19:40:27.525Z,51.40
2023-04-30T19:43:13.009Z,51.80
2023-04-30T19:45:59.211Z,52.40
2023-04-30T19:48:45.886Z,53.00
2023-04-30T19:51:32.051Z,53.40
2023-04-30T19:54:18.062Z,53.90
2023-04-30T19:57:03.640Z,54.50
2023-04-30T19:59:49.269Z,54.90
2023-04-30T20:02:34.823Z,55.60
2023-04-30T20:05:20.257Z,56.00
2023-04-30T20:08:07.182Z,56.50
2023-04-30T20:10:52.598Z,56.90
2023-04-30T20:13:38.410Z,57.30
2023-04-30T20:16:23.851Z,57.80
2023-04-30T20:19:09.743Z,58.30
2023-04-30T20:21:55.270Z,58.80
2023-04-30T20:24:44.670Z,59.20
2023-04-30T20:27:30.595Z,59.80
2023-04-30T20:30:17.348Z,60.50
2023-04-30T20:33:03.884Z,61.10
2023-04-30T20:35:49.500Z,61.60
2023-04-30T20:38:34.669Z,62.20
2023-04-30T20:41:21.255Z,62.50
2023-04-30T20:44:07.573Z,62.80
2023-04-30T20:46:53.186Z,63.10
2023-04-30T20:49:38.434Z,63.50
2023-04-30T20:52:23.957Z,63.60
2023-04-30T20:55:11.212Z,63.90
2023-04-30T20:57:56.856Z,64.40
2023-04-30T21:00:42.094Z,64.60
2023-04-30T21:03:37.921Z,64.90
2023-04-30T21:06:23.167Z,65.30
2023-04-30T21:09:10.820Z,65.50
2023-04-30T21:11:56.426Z,65.70
2023-04-30T21:14:41.972Z,66.00
2023-04-30T21:17:29.976Z,66.20
2023-04-30T21:20:15.613Z,66.50
2023-04-30T21:23:05.248Z,66.60
2023-04-30T21:25:54.640Z,66.80
2023-04-30T21:28:40.233Z,67.10
2023-04-30T21:31:25.896Z,67.30
2023-04-30T21:34:11.832Z,67.50
2023-04-30T21:36:57.834Z,67.80
2023-04-30T21:39:43.546Z,68.00
2023-04-30T21:42:29.765Z,68.10
2023-04-30T21:45:16.165Z,68.40
2023-04-30T21:48:01.654Z,68.60
2023-04-30T21:50:48.420Z,69.00
2023-04-30T21:53:35.548Z,69.40
2023-04-30T21:56:21.794Z,69.80
2023-04-30T21:59:07.463Z,70.30
2023-04-30T22:01:53.422Z,70.70
2023-04-30T22:04:38.795Z,71.20
2023-04-30T22:07:24.625Z,71.50
2023-04-30T22:10:10.700Z,71.90
2023-04-30T22:12:56.739Z,72.00
2023-04-30T22:18:32.135Z,72.40
2023-04-30T22:21:17.837Z,72.70
2023-04-30T22:24:03.978Z,73.00
2023-04-30T22:26:49.937Z,74.00
2023-04-30T22:29:36.759Z,74.30
2023-04-30T22:32:22.876Z,73.50
2023-04-30T22:35:24.026Z,73.60
2023-04-30T22:38:10.972Z,73.70
2023-04-30T22:40:57.318Z,74.10
2023-04-30T22:43:45.097Z,74.40
2023-04-30T22:46:33.315Z,74.60
2023-04-30T22:49:27.557Z,74.80
2023-04-30T22:52:16.222Z,75.00
2023-04-30T22:55:02.489Z,75.20
2023-04-30T22:57:47.887Z,75.20
2023-04-30T23:00:33.536Z,75.30
2023-04-30T23:03:21.638Z,75.60
2023-04-30T23:06:07.033Z,75.80
2023-04-30T23:08:53.643Z,75.60
2023-04-30T23:11:39.129Z,75.70
2023-04-30T23:14:25.860Z,75.90
2023-04-30T23:17:11.659Z,76.30
2023-04-30T23:19:57.841Z,76.50
2023-04-30T23:22:43.684Z,76.50
2023-04-30T23:25:30.263Z,76.60
2023-04-30T23:28:15.827Z,76.70
2023-04-30T23:31:02.019Z,77.10
2023-04-30T23:33:47.897Z,77.20
2023-04-30T23:36:33.225Z,77.40
2023-04-30T23:39:19.710Z,77.50
2023-04-30T23:42:05.551Z,77.50
2023-04-30T23:44:51.194Z,77.50
2023-04-30T23:47:36.697Z,77.70
2023-04-30T23:50:31.025Z,77.80
2023-04-30T23:53:17.315Z,77.80
2023-04-30T23:56:02.688Z,78.00
2023-04-30T23:58:47.970Z,78.20
